Current Weather

Woomera

Woomera, Australia (YPWR)

Report from: Monday, April 22, 2024 7:30 AM AEST
Current time: Monday, April 22, 2024 7:57 AM AEST

Nearby weather – Weather history – Daily summaries
Weather forecast

Temperature11.0°C (51.8°F)
Dew point3.0°C (37.4°F)
Winds 8 kts (4.1 m/s, 9.2 mph) East (90°)
Visibility6.2 mi. (10 km)
Clouds Sky clear
Altimeter30.27 in.Hg (1025 mB)
Relative humidity58 %
Density altitude-761 ft. (-232 m)
Remarks Fully automated report
No clouds detected
Flight conditions Visual Meteorological Conditions
Raw dataYPWR 212130Z AUTO 09008KT 9999 // NCD 11/03 Q1025 RF00.0/000.0
An error has occurred. This application may no longer respond until reloaded. Reload 🗙